Time;durP1;ratioP1;P1;durP2;ratioP2;P2;SDS_P1;SDS_P2;PMS_P1;PMS_P2;Temp;Humidity;BMP_temperature;BMP_pressure;BME280_temperature;BME280_humidity;BME280_pressure;Samples;Min_cycle;Max_cycle;Signal;HPM_P1;HPM_P2
2021/06/27 00:02:06;;;;;;;7.43;4.22;;;26.90;41.80;;;;;;5012678;28;20503;-72
2021/06/27 00:04:32;;;;;;;5.20;3.60;;;27.00;42.00;;;;;;5026943;28;20030;-71
2021/06/27 00:06:57;;;;;;;8.38;3.92;;;26.90;41.90;;;;;;5012284;28;20076;-71
2021/06/27 00:09:23;;;;;;;4.00;3.58;;;26.90;42.10;;;;;;5009913;28;20062;-71
2021/06/27 00:11:49;;;;;;;8.38;4.47;;;27.00;42.10;;;;;;5010753;28;20044;-71
2021/06/27 00:14:15;;;;;;;7.13;3.50;;;27.00;42.20;;;;;;5010563;28;20037;-71
2021/06/27 00:16:41;;;;;;;5.05;4.00;;;26.90;42.00;;;;;;5017054;28;20033;-70
2021/06/27 00:19:07;;;;;;;3.80;3.50;;;26.90;42.40;;;;;;5017248;28;20065;-71
2021/06/27 00:21:33;;;;;;;6.47;3.58;;;26.90;42.50;;;;;;5023070;28;20041;-71
2021/06/27 00:23:59;;;;;;;6.88;4.03;;;26.80;42.60;;;;;;5013429;28;20091;-72
2021/06/27 00:26:26;;;;;;;7.32;3.65;;;26.80;42.90;;;;;;5018217;28;20068;-71
2021/06/27 00:28:53;;;;;;;5.82;3.75;;;26.80;43.00;;;;;;5016951;28;20045;-71
2021/06/27 00:31:19;;;;;;;5.28;3.88;;;26.70;43.00;;;;;;5011158;28;20060;-71
2021/06/27 00:33:45;;;;;;;4.78;3.60;;;26.70;43.20;;;;;;5010342;28;20129;-71
2021/06/27 00:36:11;;;;;;;4.53;3.95;;;26.60;43.50;;;;;;5010072;28;20124;-70
2021/06/27 00:38:37;;;;;;;6.03;4.03;;;26.60;43.50;;;;;;5007419;28;20034;-72
2021/06/27 00:41:04;;;;;;;3.67;3.35;;;26.60;43.60;;;;;;5021305;28;20463;-72
2021/06/27 00:43:30;;;;;;;6.32;3.72;;;26.60;43.70;;;;;;5022074;28;20487;-71
2021/06/27 00:45:57;;;;;;;4.03;3.60;;;26.50;43.90;;;;;;5008624;28;20617;-72
2021/06/27 00:48:23;;;;;;;7.07;3.95;;;26.50;43.90;;;;;;5020946;28;20037;-71
2021/06/27 00:50:54;;;;;;;3.25;2.95;;;26.50;44.10;;;;;;5015052;28;20045;-71
2021/06/27 00:53:20;;;;;;;4.15;3.75;;;26.30;44.80;;;;;;5011615;28;20041;-70
2021/06/27 00:55:54;;;;;;;5.22;3.65;;;26.40;44.30;;;;;;5012772;28;20041;-70
2021/06/27 00:58:46;;;;;;;;;;;26.40;44.50;;;;;;5014110;28;20410;-71
2021/06/27 01:01:17;;;;;;;8.13;3.58;;;26.30;45.70;;;;;;5014373;28;20023;-70
2021/06/27 01:03:43;;;;;;;5.00;4.07;;;26.20;45.20;;;;;;5019998;28;20049;-71
2021/06/27 01:06:08;;;;;;;5.60;3.58;;;26.30;44.70;;;;;;5018214;28;20103;-66
2021/06/27 01:08:34;;;;;;;7.43;4.00;;;26.30;44.90;;;;;;5016435;28;20458;-71
2021/06/27 01:11:00;;;;;;;5.15;3.72;;;26.20;45.10;;;;;;5007367;28;20041;-71
2021/06/27 01:13:26;;;;;;;4.63;4.03;;;26.20;45.30;;;;;;5019727;28;20711;-71
2021/06/27 01:15:52;;;;;;;9.70;4.03;;;26.10;45.50;;;;;;5017388;28;20189;-71
2021/06/27 01:18:18;;;;;;;7.00;4.03;;;26.20;45.70;;;;;;5022593;28;20084;-70
2021/06/27 01:20:45;;;;;;;7.13;4.57;;;26.20;45.40;;;;;;5019342;28;20132;-70
2021/06/27 01:23:15;;;;;;;11.45;4.53;;;26.20;45.30;;;;;;5021381;28;20087;-70
2021/06/27 01:25:44;;;;;;;5.50;4.10;;;26.20;45.30;;;;;;5016491;28;20041;-68
2021/06/27 01:28:11;;;;;;;6.30;4.38;;;26.20;45.20;;;;;;5024321;28;20048;-68
2021/06/27 01:30:37;;;;;;;7.90;4.15;;;26.10;45.20;;;;;;5020585;28;20037;-71
2021/06/27 01:33:08;;;;;;;4.85;3.47;;;26.10;45.00;;;;;;5011180;28;20046;-70
2021/06/27 01:35:34;;;;;;;5.30;3.47;;;26.10;44.90;;;;;;5007658;28;20046;-71
2021/06/27 01:38:01;;;;;;;5.25;3.53;;;26.10;44.20;;;;;;5027211;28;20045;-71
2021/06/27 01:40:29;;;;;;;5.35;3.20;;;26.10;43.30;;;;;;5015817;28;20041;-70
2021/06/27 01:43:15;;;;;;;3.55;2.83;;;26.00;43.40;;;;;;5013110;28;20107;-70
2021/06/27 01:45:48;;;;;;;6.72;3.03;;;26.00;42.70;;;;;;5010871;28;20033;-69
2021/06/27 01:48:14;;;;;;;5.60;2.58;;;26.00;42.60;;;;;;5027742;28;20037;-70
2021/06/27 01:50:42;;;;;;;5.47;2.67;;;25.90;42.20;;;;;;5012594;28;20092;-69
2021/06/27 01:53:10;;;;;;;4.10;2.67;;;25.90;42.10;;;;;;5018350;28;20037;-70
2021/06/27 01:55:36;;;;;;;2.50;2.30;;;25.90;42.10;;;;;;5007257;28;20034;-71
2021/06/27 01:58:02;;;;;;;4.22;2.67;;;26.00;42.10;;;;;;5015500;28;20038;-71
2021/06/27 02:00:29;;;;;;;4.72;2.90;;;25.80;41.70;;;;;;5021985;28;20037;-71
2021/06/27 02:02:56;;;;;;;4.80;2.58;;;25.80;41.80;;;;;;5018757;28;20053;-70
2021/06/27 02:05:23;;;;;;;4.80;3.15;;;25.80;41.80;;;;;;5014251;28;20053;-70
2021/06/27 02:07:48;;;;;;;3.53;2.17;;;25.80;41.80;;;;;;5019117;28;20455;-70
2021/06/27 02:10:19;;;;;;;2.70;2.50;;;25.80;41.40;;;;;;5020169;28;20076;-70
2021/06/27 02:12:45;;;;;;;3.35;2.72;;;25.80;41.10;;;;;;5021216;28;20053;-70
2021/06/27 02:15:12;;;;;;;4.90;2.60;;;25.70;41.30;;;;;;5018195;28;20037;-70
2021/06/27 02:17:56;;;;;;;2.38;2.17;;;25.60;41.00;;;;;;5037657;28;20069;-70
2021/06/27 02:20:25;;;;;;;4.00;2.35;;;25.60;40.90;;;;;;4996671;28;20079;-70
2021/06/27 02:22:51;;;;;;;3.50;2.65;;;25.50;41.20;;;;;;5014475;28;20128;-70
2021/06/27 02:25:17;;;;;;;5.30;2.15;;;25.60;41.20;;;;;;5022819;28;20129;-70
2021/06/27 02:27:42;;;;;;;3.15;2.15;;;25.50;41.10;;;;;;5022276;28;20037;-70
2021/06/27 02:30:10;;;;;;;2.40;2.20;;;25.50;41.30;;;;;;5021574;28;20103;-70
2021/06/27 02:32:36;;;;;;;2.92;2.13;;;25.50;41.60;;;;;;5018920;28;22162;-70
2021/06/27 02:35:03;;;;;;;6.15;2.60;;;25.50;41.70;;;;;;5021828;28;20517;-70
2021/06/27 02:37:29;;;;;;;9.00;2.80;;;25.50;41.70;;;;;;5025390;28;20064;-70
2021/06/27 02:39:54;;;;;;;5.53;2.83;;;25.30;41.90;;;;;;5004347;28;20034;-70
2021/06/27 02:42:20;;;;;;;3.25;2.63;;;25.30;42.30;;;;;;5024077;28;20137;-70
2021/06/27 02:44:46;;;;;;;5.95;3.50;;;25.30;42.30;;;;;;5013940;28;20053;-70
2021/06/27 02:47:15;;;;;;;4.15;2.45;;;25.20;42.40;;;;;;5027105;28;20431;-70
2021/06/27 02:49:42;;;;;;;5.90;2.85;;;25.30;42.60;;;;;;5022130;28;20555;-71
2021/06/27 02:52:07;;;;;;;5.70;3.65;;;25.20;42.50;;;;;;5023241;28;20037;-70
2021/06/27 02:54:33;;;;;;;6.38;3.75;;;25.30;42.80;;;;;;5016825;28;20044;-70
2021/06/27 02:56:58;;;;;;;7.05;4.50;;;25.20;42.60;;;;;;5023325;28;20124;-72
2021/06/27 02:59:24;;;;;;;3.85;3.22;;;25.20;42.60;;;;;;5016991;28;20577;-71
2021/06/27 03:01:50;;;;;;;4.38;3.35;;;25.20;42.80;;;;;;5022665;28;20534;-70
2021/06/27 03:04:15;;;;;;;6.10;3.08;;;25.30;42.70;;;;;;5015225;28;20120;-70
2021/06/27 03:06:41;;;;;;;5.43;3.17;;;25.30;42.10;;;;;;5013471;28;20141;-69
2021/06/27 03:09:06;;;;;;;4.55;2.65;;;25.20;42.10;;;;;;5025410;28;20037;-70
2021/06/27 03:11:32;;;;;;;4.30;2.70;;;25.20;42.10;;;;;;5012158;28;20468;-71
2021/06/27 03:13:58;;;;;;;4.03;2.65;;;25.20;42.10;;;;;;5024754;28;21364;-70
2021/06/27 03:16:23;;;;;;;5.40;2.40;;;25.20;42.20;;;;;;5019358;28;20041;-71
2021/06/27 03:18:49;;;;;;;8.57;2.60;;;25.20;42.40;;;;;;5012983;28;20061;-70
2021/06/27 03:21:15;;;;;;;4.57;2.15;;;25.10;42.30;;;;;;5017867;28;20400;-68
2021/06/27 03:23:40;;;;;;;2.25;1.90;;;25.10;42.20;;;;;;5019397;28;20103;-69
2021/06/27 03:26:06;;;;;;;2.33;2.10;;;25.10;42.10;;;;;;5020197;28;20037;-69
2021/06/27 03:28:36;;;;;;;4.93;2.20;;;25.10;42.10;;;;;;5018426;28;20068;-71
2021/06/27 03:31:02;;;;;;;2.83;2.20;;;25.10;41.90;;;;;;5018433;28;20064;-71
2021/06/27 03:33:28;;;;;;;2.83;2.40;;;25.10;42.00;;;;;;5022633;28;20042;-71
2021/06/27 03:35:54;;;;;;;2.30;2.10;;;25.10;41.90;;;;;;5005500;28;20042;-70
2021/06/27 03:39:22;;;;;;;2.47;2.30;;;25.10;41.90;;;;;;5016750;28;20046;-71
2021/06/27 03:41:21;;;;;;;3.00;2.30;;;25.10;41.90;;;;;;4969368;28;20423;-71
2021/06/27 03:43:47;;;;;;;2.00;1.90;;;25.10;41.90;;;;;;5016871;28;20699;-71
2021/06/27 03:46:14;;;;;;;4.22;2.20;;;25.00;41.80;;;;;;5000755;28;20058;-71
2021/06/27 03:48:39;;;;;;;2.40;2.05;;;25.00;41.90;;;;;;5007186;28;20037;-66
2021/06/27 03:51:05;;;;;;;2.90;2.00;;;25.00;41.80;;;;;;5009918;28;20045;-71
2021/06/27 03:53:31;;;;;;;4.00;2.38;;;25.00;41.90;;;;;;5023933;28;20391;-71
2021/06/27 03:55:58;;;;;;;3.03;2.45;;;25.00;42.00;;;;;;5020582;28;20048;-71
2021/06/27 03:58:27;;;;;;;3.70;2.40;;;25.00;42.00;;;;;;5018309;28;20553;-70
2021/06/27 04:00:53;;;;;;;4.88;2.30;;;25.00;42.00;;;;;;5013584;28;20212;-71
2021/06/27 04:03:21;;;;;;;2.97;1.95;;;24.90;42.00;;;;;;5021882;28;20053;-71
2021/06/27 04:05:46;;;;;;;2.88;2.45;;;24.90;42.00;;;;;;5030118;28;20127;-71
2021/06/27 04:08:12;;;;;;;2.95;2.65;;;24.90;42.00;;;;;;5002195;28;20033;-70
2021/06/27 04:10:38;;;;;;;4.70;2.30;;;24.90;42.00;;;;;;5024930;28;20500;-70
2021/06/27 04:13:03;;;;;;;7.38;2.83;;;25.00;42.10;;;;;;5016313;28;20037;-70
2021/06/27 04:15:29;;;;;;;4.72;2.70;;;24.90;41.90;;;;;;5022316;28;20121;-70
2021/06/27 04:17:55;;;;;;;3.95;2.58;;;25.00;42.10;;;;;;5013921;28;20140;-70
2021/06/27 04:20:21;;;;;;;3.97;2.80;;;25.00;42.00;;;;;;5011563;28;20095;-69
2021/06/27 04:22:46;;;;;;;5.07;2.90;;;25.00;42.20;;;;;;5017332;28;20052;-70
2021/06/27 04:25:12;;;;;;;3.03;2.72;;;25.00;42.20;;;;;;5017570;28;20042;-69
2021/06/27 04:27:38;;;;;;;7.15;2.80;;;24.90;42.30;;;;;;5019293;28;20045;-70
2021/06/27 04:30:06;;;;;;;5.75;3.08;;;24.90;42.40;;;;;;5016643;28;20039;-69
2021/06/27 04:32:31;;;;;;;8.23;3.13;;;24.90;42.40;;;;;;5017124;28;20042;-69
2021/06/27 04:34:57;;;;;;;3.13;2.88;;;24.90;42.20;;;;;;5021177;28;20037;-69
2021/06/27 04:37:23;;;;;;;6.38;2.40;;;24.90;42.30;;;;;;5025877;28;20097;-69
2021/06/27 04:39:49;;;;;;;5.72;3.25;;;25.00;42.30;;;;;;5017556;28;20517;-69
2021/06/27 04:42:15;;;;;;;5.00;3.38;;;25.00;42.40;;;;;;5013294;28;20037;-68
2021/06/27 04:44:41;;;;;;;6.63;3.50;;;25.00;42.40;;;;;;5011596;28;20037;-68
2021/06/27 04:47:08;;;;;;;4.93;3.45;;;25.00;42.50;;;;;;5017978;28;20045;-70
2021/06/27 04:49:35;;;;;;;6.65;3.53;;;24.90;42.30;;;;;;5014706;28;20079;-70
2021/06/27 04:52:01;;;;;;;4.90;3.33;;;24.90;42.50;;;;;;5017802;28;20040;-70
2021/06/27 04:54:27;;;;;;;4.00;3.47;;;24.90;42.40;;;;;;5019956;28;20037;-70
2021/06/27 04:56:52;;;;;;;5.75;4.32;;;24.90;42.60;;;;;;5036349;28;20071;-70
2021/06/27 04:59:18;;;;;;;7.03;4.13;;;24.90;42.80;;;;;;5020276;28;20057;-71
2021/06/27 05:01:43;;;;;;;5.65;4.30;;;24.90;42.60;;;;;;5018853;28;20040;-69
2021/06/27 05:04:09;;;;;;;5.38;3.75;;;24.90;42.50;;;;;;5020116;28;20041;-70
2021/06/27 05:06:35;;;;;;;8.70;4.13;;;25.00;42.50;;;;;;5023065;28;20034;-70
2021/06/27 05:09:00;;;;;;;6.00;4.95;;;25.10;42.60;;;;;;5011156;28;20061;-70
2021/06/27 05:11:26;;;;;;;5.75;4.60;;;25.00;42.70;;;;;;5003978;28;20480;-70
2021/06/27 05:13:52;;;;;;;8.68;4.53;;;24.90;42.60;;;;;;5021932;28;20042;-70
2021/06/27 05:16:17;;;;;;;5.97;4.70;;;25.00;42.60;;;;;;5011166;28;20034;-71
2021/06/27 05:18:43;;;;;;;6.03;3.80;;;25.10;42.40;;;;;;5035846;28;20045;-70
2021/06/27 05:21:08;;;;;;;5.85;3.97;;;25.20;42.30;;;;;;5019453;28;20037;-71
2021/06/27 05:23:34;;;;;;;4.15;3.70;;;25.10;42.30;;;;;;5014644;28;20047;-70
2021/06/27 05:26:00;;;;;;;7.10;3.90;;;25.20;42.40;;;;;;5011110;28;20053;-71
2021/06/27 05:28:27;;;;;;;8.43;3.85;;;25.30;42.20;;;;;;5013594;28;20065;-70
2021/06/27 05:30:53;;;;;;;5.60;4.22;;;25.30;42.10;;;;;;5009158;28;20029;-69
2021/06/27 05:33:18;;;;;;;5.43;4.05;;;25.50;41.80;;;;;;5014886;28;20042;-71
2021/06/27 05:35:44;;;;;;;5.35;4.68;;;25.50;41.70;;;;;;5007308;28;20130;-70
2021/06/27 05:38:09;;;;;;;7.15;4.72;;;25.50;41.60;;;;;;5029453;28;20056;-71
2021/06/27 05:40:35;;;;;;;4.03;3.63;;;25.50;42.30;;;;;;5014277;28;20390;-71
2021/06/27 05:43:01;;;;;;;6.78;4.47;;;25.50;41.70;;;;;;5018815;28;20112;-70
2021/06/27 05:45:26;;;;;;;5.03;4.15;;;25.60;41.70;;;;;;5024494;28;20087;-70
2021/06/27 05:47:52;;;;;;;8.50;4.07;;;25.60;41.60;;;;;;5017750;28;20120;-70
2021/06/27 05:50:18;;;;;;;5.43;4.45;;;25.60;41.50;;;;;;5016261;28;20038;-70
2021/06/27 05:52:43;;;;;;;4.82;4.22;;;25.70;41.70;;;;;;5016233;28;20070;-69
2021/06/27 05:55:09;;;;;;;4.22;3.78;;;25.50;41.60;;;;;;5026460;28;20088;-70
2021/06/27 05:57:35;;;;;;;8.45;4.10;;;25.60;41.70;;;;;;5022270;28;20039;-70
2021/06/27 06:00:01;;;;;;;5.40;3.40;;;25.70;41.70;;;;;;5024484;28;20141;-71
2021/06/27 06:02:26;;;;;;;3.75;3.45;;;25.60;41.40;;;;;;5021222;28;20072;-71
2021/06/27 06:04:52;;;;;;;7.30;4.15;;;25.50;41.50;;;;;;5016578;28;20069;-71
2021/06/27 06:07:17;;;;;;;8.52;3.88;;;25.50;41.50;;;;;;5014085;28;20061;-71
2021/06/27 06:09:43;;;;;;;4.70;2.92;;;25.40;41.50;;;;;;5014785;28;20047;-70
2021/06/27 06:12:09;;;;;;;6.28;4.00;;;25.30;41.70;;;;;;5017383;28;20048;-71
2021/06/27 06:14:34;;;;;;;6.43;3.72;;;25.30;41.60;;;;;;5026949;28;20451;-70
2021/06/27 06:17:00;;;;;;;4.40;2.97;;;25.40;41.80;;;;;;5018656;28;20121;-70
2021/06/27 06:19:26;;;;;;;5.75;3.38;;;25.50;41.80;;;;;;5016568;28;20045;-70
2021/06/27 06:21:51;;;;;;;3.90;3.13;;;25.40;41.80;;;;;;5039777;28;20439;-70
2021/06/27 06:24:18;;;;;;;4.32;2.95;;;25.40;41.90;;;;;;5020454;28;20135;-70
2021/06/27 06:26:45;;;;;;;5.78;3.50;;;25.40;42.00;;;;;;5041626;28;20559;-69
2021/06/27 06:29:10;;;;;;;3.30;3.05;;;25.50;41.80;;;;;;5006947;28;20034;-71
2021/06/27 06:31:36;;;;;;;5.88;3.08;;;25.50;41.60;;;;;;5019755;28;20085;-70
2021/06/27 06:34:02;;;;;;;3.50;2.47;;;25.60;41.40;;;;;;5022574;28;20037;-70
2021/06/27 06:36:28;;;;;;;2.95;2.22;;;25.70;41.30;;;;;;5020937;28;20038;-71
2021/06/27 06:38:53;;;;;;;3.22;2.65;;;25.80;41.10;;;;;;5007877;28;20049;-71
2021/06/27 06:41:19;;;;;;;5.63;2.88;;;25.80;41.40;;;;;;5012917;28;20410;-71
2021/06/27 06:43:45;;;;;;;3.05;2.30;;;25.80;40.70;;;;;;5017805;28;20052;-70
2021/06/27 06:46:11;;;;;;;2.30;2.20;;;25.80;40.90;;;;;;5023782;28;20054;-63
2021/06/27 06:48:37;;;;;;;4.85;2.42;;;25.90;40.60;;;;;;5020736;28;20563;-71
2021/06/27 06:51:03;;;;;;;5.15;2.28;;;26.10;40.70;;;;;;5020775;28;20037;-71
2021/06/27 06:53:29;;;;;;;4.15;2.30;;;26.10;40.40;;;;;;5013479;28;20053;-71
2021/06/27 06:55:57;;;;;;;3.15;2.38;;;26.20;39.90;;;;;;5025111;28;20446;-71
2021/06/27 06:58:24;;;;;;;3.28;2.70;;;26.30;39.80;;;;;;5023385;28;20041;-71
2021/06/27 07:00:50;;;;;;;3.38;1.95;;;26.30;39.70;;;;;;5026237;28;20081;-71
2021/06/27 07:03:16;;;;;;;4.57;2.30;;;26.40;39.40;;;;;;5021687;28;20058;-66
2021/06/27 07:05:41;;;;;;;4.45;2.08;;;26.50;39.40;;;;;;5020348;28;20129;-69
2021/06/27 07:08:07;;;;;;;3.72;1.85;;;26.50;39.00;;;;;;5038794;28;20071;-71
2021/06/27 07:10:33;;;;;;;3.58;1.77;;;26.50;39.00;;;;;;5021125;28;20038;-71
2021/06/27 07:12:58;;;;;;;4.40;1.95;;;26.60;38.50;;;;;;5038571;28;20033;-71
2021/06/27 07:15:24;;;;;;;3.40;1.92;;;26.60;38.30;;;;;;5020859;28;20449;-71
2021/06/27 07:17:50;;;;;;;2.60;1.92;;;26.60;38.30;;;;;;5022203;28;20034;-70
2021/06/27 07:20:15;;;;;;;5.38;2.15;;;26.70;38.40;;;;;;5006962;28;20049;-70
2021/06/27 07:22:41;;;;;;;4.93;2.00;;;26.80;38.10;;;;;;5024817;28;20050;-71
2021/06/27 07:25:08;;;;;;;4.22;2.03;;;26.80;38.20;;;;;;5010049;28;20113;-71
2021/06/27 07:27:34;;;;;;;2.40;2.20;;;26.90;37.90;;;;;;5040777;28;20040;-71
2021/06/27 07:30:00;;;;;;;3.33;2.50;;;26.90;37.70;;;;;;5019419;28;20030;-71
2021/06/27 07:32:26;;;;;;;3.90;2.08;;;27.00;37.70;;;;;;5013396;28;20149;-71
2021/06/27 07:34:51;;;;;;;4.90;2.50;;;27.10;37.50;;;;;;5005160;28;20034;-71
2021/06/27 07:37:17;;;;;;;4.93;2.25;;;27.10;37.10;;;;;;5013923;28;20077;-71
2021/06/27 07:39:43;;;;;;;3.13;2.22;;;27.20;36.80;;;;;;5020621;28;20042;-70
2021/06/27 07:42:09;;;;;;;4.13;1.77;;;27.20;36.50;;;;;;5021377;28;20033;-71
2021/06/27 07:44:35;;;;;;;3.38;2.20;;;27.30;36.70;;;;;;5022995;28;20479;-71
2021/06/27 07:47:00;;;;;;;3.60;2.03;;;27.30;36.40;;;;;;5016400;28;20407;-71
2021/06/27 07:49:26;;;;;;;2.03;1.55;;;27.40;36.40;;;;;;5024823;28;20038;-71
2021/06/27 07:51:52;;;;;;;2.63;1.60;;;27.30;36.00;;;;;;5018627;28;20476;-71
2021/06/27 07:54:17;;;;;;;5.07;2.05;;;27.40;36.10;;;;;;5012650;28;20042;-71
2021/06/27 07:56:43;;;;;;;4.05;1.75;;;27.50;36.70;;;;;;5013771;28;20045;-70
2021/06/27 07:59:09;;;;;;;3.22;1.85;;;27.60;36.10;;;;;;5023856;28;20041;-71
2021/06/27 08:01:35;;;;;;;3.42;1.90;;;27.60;36.00;;;;;;5016157;28;20399;-71
2021/06/27 08:04:01;;;;;;;6.15;2.30;;;27.70;36.00;;;;;;5021688;28;20053;-69
2021/06/27 08:06:26;;;;;;;3.13;2.15;;;27.70;35.70;;;;;;5018181;28;20042;-69
2021/06/27 08:08:52;;;;;;;3.67;2.13;;;27.70;35.60;;;;;;5024132;28;20376;-70
2021/06/27 08:11:18;;;;;;;6.50;2.03;;;27.80;35.30;;;;;;5013719;28;20116;-70
2021/06/27 08:13:43;;;;;;;1.98;1.77;;;27.90;35.20;;;;;;5018436;28;20045;-70
2021/06/27 08:16:09;;;;;;;2.40;1.88;;;27.90;34.90;;;;;;5018849;28;20632;-70
2021/06/27 08:18:35;;;;;;;2.67;1.90;;;27.90;35.00;;;;;;5014512;28;20042;-70
2021/06/27 08:21:00;;;;;;;3.25;2.30;;;27.90;34.80;;;;;;5011596;28;20449;-70
2021/06/27 08:23:26;;;;;;;2.03;1.83;;;28.00;34.60;;;;;;5020940;28;20058;-70
2021/06/27 08:26:35;;;;;;;2.15;1.73;;;28.00;34.70;;;;;;5015183;28;20079;-70
2021/06/27 08:29:01;;;;;;;2.30;2.10;;;28.10;35.60;;;;;;4990599;28;20044;-70
2021/06/27 08:31:28;;;;;;;3.58;2.05;;;28.10;34.70;;;;;;5004752;28;20656;-70
2021/06/27 08:33:53;;;;;;;3.72;1.80;;;28.30;34.80;;;;;;5012629;28;20041;-70
2021/06/27 08:36:19;;;;;;;1.80;1.70;;;28.30;35.10;;;;;;5018276;28;20041;-70
2021/06/27 08:38:45;;;;;;;4.70;2.00;;;28.30;34.50;;;;;;5005509;28;20026;-70
2021/06/27 08:41:17;;;;;;;2.13;1.92;;;28.40;34.70;;;;;;5021248;28;20041;-70
2021/06/27 08:43:44;;;;;;;3.15;2.15;;;28.40;34.20;;;;;;5014858;28;20049;-70
2021/06/27 08:46:13;;;;;;;2.00;1.75;;;28.50;34.50;;;;;;5021324;28;20033;-71
2021/06/27 08:48:40;;;;;;;2.75;1.90;;;28.60;34.10;;;;;;5020997;28;20123;-71
2021/06/27 08:51:08;;;;;;;3.70;2.15;;;28.60;33.50;;;;;;5019201;28;20168;-70
2021/06/27 08:53:35;;;;;;;4.70;2.00;;;28.60;34.00;;;;;;5009809;28;20475;-70
2021/06/27 08:56:05;;;;;;;5.03;2.17;;;28.70;34.00;;;;;;5022705;28;20488;-71
2021/06/27 08:58:48;;;;;;;2.60;1.83;;;28.80;33.80;;;;;;5020038;28;20394;-71
2021/06/27 09:01:21;;;;;;;5.75;2.10;;;28.90;33.20;;;;;;5009531;28;20046;-70
2021/06/27 09:03:47;;;;;;;3.47;1.80;;;28.90;33.50;;;;;;5012682;28;20095;-70
2021/06/27 09:06:29;;;;;;;2.97;2.03;;;28.90;33.70;;;;;;5007488;28;20434;-70
2021/06/27 09:09:11;;;;;;;2.50;2.17;;;29.00;33.80;;;;;;5013538;28;20041;-70
2021/06/27 09:11:38;;;;;;;3.92;2.40;;;29.10;33.50;;;;;;5011265;28;20053;-71
2021/06/27 09:14:04;;;;;;;3.00;2.25;;;29.20;33.90;;;;;;5016306;28;20396;-71
2021/06/27 09:16:30;;;;;;;6.28;2.22;;;29.10;33.70;;;;;;5015466;28;20365;-71
2021/06/27 09:19:02;;;;;;;3.72;2.10;;;29.10;33.90;;;;;;5013557;28;20101;-71
2021/06/27 09:21:28;;;;;;;2.13;1.92;;;29.10;33.40;;;;;;5019590;28;20033;-71
2021/06/27 09:23:54;;;;;;;3.28;2.20;;;29.20;33.50;;;;;;5019691;28;20037;-71
2021/06/27 09:26:27;;;;;;;4.82;2.22;;;29.20;33.60;;;;;;5015617;28;20179;-70
2021/06/27 09:28:53;;;;;;;2.40;2.20;;;29.30;33.40;;;;;;5018587;28;20103;-71
2021/06/27 09:31:35;;;;;;;2.67;2.50;;;29.30;33.50;;;;;;5016440;28;20041;-70
2021/06/27 09:34:09;;;;;;;3.35;2.05;;;29.50;33.00;;;;;;5012325;28;20046;-70
2021/06/27 09:36:53;;;;;;;2.88;2.47;;;29.60;33.20;;;;;;5015603;28;20042;-70
2021/06/27 09:39:19;;;;;;;5.18;2.20;;;29.50;32.40;;;;;;4996242;28;20520;-70
2021/06/27 09:41:48;;;;;;;3.70;2.25;;;29.40;32.80;;;;;;5014526;28;20049;-70
2021/06/27 09:44:15;;;;;;;4.00;2.13;;;29.50;32.90;;;;;;5022680;28;20041;-69
2021/06/27 09:46:44;;;;;;;2.97;1.90;;;29.60;32.80;;;;;;5018621;28;20513;-70
2021/06/27 09:49:16;;;;;;;4.18;2.60;;;29.70;33.10;;;;;;5017630;28;20040;-70
2021/06/27 09:52:12;;;;;;;5.38;2.65;;;29.80;32.90;;;;;;5015175;28;20117;-55
2021/06/27 09:54:39;;;;;;;3.35;2.55;;;29.90;32.20;;;;;;5009032;28;20029;-70
2021/06/27 09:57:06;;;;;;;6.63;2.78;;;30.00;32.30;;;;;;5013889;28;20034;-69
2021/06/27 09:59:37;;;;;;;2.20;1.77;;;30.00;31.80;;;;;;5015929;28;20041;-71
2021/06/27 10:02:03;;;;;;;2.72;2.00;;;29.90;32.10;;;;;;5014664;28;20053;-70
2021/06/27 10:04:33;;;;;;;5.53;1.95;;;30.20;31.30;;;;;;5012774;28;20116;-70
2021/06/27 10:07:00;;;;;;;2.17;1.98;;;30.30;30.80;;;;;;4997447;28;20081;-70
2021/06/27 10:09:32;;;;;;;5.90;2.38;;;30.20;31.10;;;;;;5018909;28;20128;-70
2021/06/27 10:12:06;;;;;;;4.35;2.00;;;30.40;30.70;;;;;;5015254;28;20037;-71
2021/06/27 10:14:55;;;;;;;4.88;2.42;;;30.50;31.00;;;;;;5019207;28;20503;-70
2021/06/27 10:17:23;;;;;;;4.65;2.17;;;30.40;31.10;;;;;;4992174;28;20026;-70
2021/06/27 10:19:50;;;;;;;2.28;2.00;;;30.60;31.30;;;;;;5015869;28;20037;-70
2021/06/27 10:22:16;;;;;;;2.08;1.95;;;30.70;30.40;;;;;;5013260;28;20029;-70
2021/06/27 10:24:43;;;;;;;2.42;2.00;;;30.70;30.60;;;;;;5022892;28;20042;-71
2021/06/27 10:27:09;;;;;;;2.05;1.90;;;30.90;30.90;;;;;;5010988;28;20041;-70
2021/06/27 10:29:42;;;;;;;3.42;2.55;;;31.10;30.10;;;;;;5019446;28;20475;-71
2021/06/27 10:32:09;;;;;;;6.18;2.40;;;31.20;30.00;;;;;;5020043;28;20048;-71
2021/06/27 10:34:36;;;;;;;3.45;2.20;;;31.30;29.70;;;;;;5023166;28;20496;-70
2021/06/27 10:37:12;;;;;;;2.85;2.45;;;31.40;29.60;;;;;;5020795;28;20450;-71
2021/06/27 10:39:39;;;;;;;2.95;2.17;;;31.50;28.80;;;;;;5025090;28;20048;-71
2021/06/27 10:42:07;;;;;;;4.32;1.95;;;31.60;29.20;;;;;;5018274;28;20052;-71
2021/06/27 10:44:38;;;;;;;4.22;2.22;;;31.60;29.10;;;;;;5021848;28;20502;-71
2021/06/27 10:47:05;;;;;;;5.38;2.42;;;31.70;28.60;;;;;;5019368;28;20391;-71
2021/06/27 10:49:31;;;;;;;6.75;2.30;;;31.80;28.60;;;;;;5009651;28;20037;-71
2021/06/27 10:51:59;;;;;;;2.08;1.98;;;31.80;28.50;;;;;;5021386;28;20079;-71
2021/06/27 10:54:25;;;;;;;2.30;1.90;;;32.10;28.30;;;;;;5019495;28;20092;-71
2021/06/27 10:57:02;;;;;;;3.40;2.20;;;32.70;26.90;;;;;;5024912;28;20044;-71
2021/06/27 10:59:39;;;;;;;4.22;2.58;;;33.30;26.20;;;;;;5021908;28;20491;-71
2021/06/27 11:02:42;;;;;;;2.45;2.25;;;35.40;25.40;;;;;;5017397;28;20030;-71
2021/06/27 11:05:31;;;;;;;3.20;2.20;;;36.90;23.80;;;;;;4992334;28;20042;-72
2021/06/27 11:07:59;;;;;;;4.72;2.00;;;38.40;24.40;;;;;;4993437;28;20029;-72
2021/06/27 11:10:24;;;;;;;5.15;2.10;;;39.10;21.90;;;;;;5023110;28;20542;-72
2021/06/27 11:12:59;;;;;;;2.70;2.50;;;39.40;21.40;;;;;;5016557;28;20110;-72
2021/06/27 11:15:27;;;;;;;4.22;2.13;;;39.80;21.20;;;;;;5011370;28;20124;-71
2021/06/27 11:17:55;;;;;;;3.53;2.30;;;39.40;21.20;;;;;;5021644;28;20083;-72
2021/06/27 11:20:21;;;;;;;4.93;2.28;;;38.80;21.20;;;;;;5019721;28;20048;-71
2021/06/27 11:22:52;;;;;;;3.47;2.15;;;38.20;21.50;;;;;;5026787;28;20072;-71
2021/06/27 11:25:36;;;;;;;4.18;2.80;;;37.80;21.60;;;;;;5019984;28;20045;-72
2021/06/27 11:28:22;;;;;;;6.70;3.40;;;37.10;22.20;;;;;;5021892;28;20536;-72
2021/06/27 11:31:15;;;;;;;2.90;2.70;;;36.60;22.80;;;;;;4980490;28;20034;-71
2021/06/27 11:33:41;;;;;;;5.30;3.13;;;36.60;23.10;;;;;;5002626;28;20042;-71
2021/06/27 11:36:24;;;;;;;2.80;2.60;;;37.70;23.40;;;;;;5004174;28;20037;-71
2021/06/27 11:38:50;;;;;;;;;;;37.10;23.10;;;;;;5002915;28;20041;-71
2021/06/27 11:41:35;;;;;;;4.97;2.92;;;35.80;24.00;;;;;;5011846;28;19959;-71
2021/06/27 11:44:00;;;;;;;9.20;3.53;;;34.90;25.80;;;;;;5019269;28;20051;-72
2021/06/27 11:46:35;;;;;;;3.35;3.05;;;34.70;25.70;;;;;;5015954;28;20041;-70
2021/06/27 11:49:07;;;;;;;7.25;3.15;;;35.30;25.60;;;;;;5014612;28;20091;-70
2021/06/27 11:51:33;;;;;;;7.20;3.42;;;35.50;24.60;;;;;;5013822;28;20046;-69
2021/06/27 11:54:00;;;;;;;3.38;3.08;;;36.10;24.70;;;;;;5019829;28;20053;-70
2021/06/27 11:56:25;;;;;;;6.82;3.17;;;36.40;24.40;;;;;;5016532;28;20037;-70
2021/06/27 11:59:11;;;;;;;3.13;2.72;;;36.50;23.80;;;;;;5017804;28;20513;-70
2021/06/27 12:01:37;;;;;;;3.17;2.85;;;37.20;23.10;;;;;;5012377;28;20491;-69
2021/06/27 12:04:02;;;;;;;3.72;3.08;;;37.80;23.30;;;;;;5022219;28;20057;-69
2021/06/27 12:06:37;;;;;;;3.70;3.10;;;38.70;22.30;;;;;;5016563;28;20455;-70
2021/06/27 12:09:04;;;;;;;3.53;3.20;;;39.30;21.70;;;;;;5017251;28;22815;-70
2021/06/27 12:11:30;;;;;;;5.38;3.25;;;39.10;21.70;;;;;;5017310;28;20057;-70
2021/06/27 12:13:56;;;;;;;3.42;3.13;;;39.30;20.70;;;;;;5020163;28;20049;-70
2021/06/27 12:16:30;;;;;;;5.68;3.00;;;39.50;20.80;;;;;;5021037;28;20041;-70
2021/06/27 12:18:59;;;;;;;4.22;2.90;;;39.50;20.90;;;;;;5013105;28;20060;-70
2021/06/27 12:21:28;;;;;;;3.83;3.42;;;38.70;20.70;;;;;;5016613;28;20038;-70
2021/06/27 12:23:57;;;;;;;4.07;3.30;;;38.80;21.20;;;;;;5022924;28;20080;-69
2021/06/27 12:26:23;;;;;;;3.70;3.28;;;38.40;21.00;;;;;;5011942;28;20091;-70
2021/06/27 12:28:54;;;;;;;8.07;3.63;;;39.00;21.60;;;;;;5023501;28;20038;-70
2021/06/27 12:31:29;;;;;;;4.05;3.10;;;39.50;21.00;;;;;;5019941;28;20085;-70
2021/06/27 12:34:08;;;;;;;3.45;3.15;;;40.10;20.50;;;;;;5019446;28;20193;-70
2021/06/27 12:36:46;;;;;;;4.07;3.40;;;40.20;20.50;;;;;;5017998;28;20073;-70
2021/06/27 12:39:17;;;;;;;4.22;3.67;;;40.80;20.20;;;;;;5021130;28;20041;-70
2021/06/27 12:41:44;;;;;;;5.05;3.80;;;40.90;20.00;;;;;;5019056;28;20384;-69
2021/06/27 12:44:12;;;;;;;4.25;3.38;;;40.90;19.70;;;;;;5014941;28;20064;-70
2021/06/27 12:46:47;;;;;;;3.50;3.20;;;40.80;20.10;;;;;;5021054;28;20124;-70
2021/06/27 12:49:33;;;;;;;3.92;3.58;;;39.90;20.20;;;;;;5011672;28;20042;-70
2021/06/27 12:52:07;;;;;;;3.70;3.40;;;39.50;20.80;;;;;;4996707;28;20498;-70
2021/06/27 12:54:47;;;;;;;4.32;2.97;;;40.40;20.20;;;;;;5011124;28;20384;-69